Time;durP1;ratioP1;P1;durP2;ratioP2;P2;SDS_P1;SDS_P2;PMS_P1;PMS_P2;Temp;Humidity;BMP_temperature;BMP_pressure;BME280_temperature;BME280_humidity;BME280_pressure;Samples;Min_cycle;Max_cycle;Signal;HPM_P1;HPM_P2
2021/07/20 00:01:34;;;;;;;16.92;7.55;;;;;;;22.28;53.13;98563.84;4882945;29;20052;-78
2021/07/20 00:04:00;;;;;;;12.32;7.05;;;;;;;22.31;53.23;98568.84;4883031;29;20044;-80
2021/07/20 00:06:26;;;;;;;10.15;7.13;;;;;;;22.30;53.04;98561.72;4898384;29;20139;-78
2021/07/20 00:08:52;;;;;;;15.07;7.20;;;;;;;22.29;53.23;98573.66;4898247;29;20097;-78
2021/07/20 00:11:18;;;;;;;17.10;7.63;;;;;;;22.22;53.13;98556.53;4899448;29;20642;-79
2021/07/20 00:13:43;;;;;;;13.35;7.25;;;;;;;22.28;53.25;98572.84;4898183;29;20144;-80
2021/07/20 00:16:09;;;;;;;11.32;7.50;;;;;;;22.27;53.12;98560.28;4882738;29;20055;-80
2021/07/20 00:18:36;;;;;;;11.57;7.47;;;;;;;22.32;53.14;98559.63;4899223;29;20552;-83
2021/07/20 00:21:06;;;;;;;10.48;7.45;;;;;;;22.31;53.27;98560.69;4897719;29;20063;-83
2021/07/20 00:23:32;;;;;;;18.13;8.82;;;;;;;22.33;53.38;98569.47;4897755;29;20040;-84
2021/07/20 00:26:00;;;;;;;14.23;8.10;;;;;;;22.33;53.64;98574.91;4899161;29;20076;-82
2021/07/20 00:28:26;;;;;;;11.70;7.47;;;;;;;22.27;53.52;98567.63;4882477;29;20505;-80
2021/07/20 00:30:52;;;;;;;11.15;7.47;;;;;;;22.33;53.60;98574.91;4882390;29;20075;-80
2021/07/20 00:33:18;;;;;;;10.73;7.78;;;;;;;22.27;53.91;98570.34;4897775;29;20135;-80
2021/07/20 00:35:44;;;;;;;8.38;7.20;;;;;;;22.32;53.81;98575.13;4851474;29;20045;-81
2021/07/20 00:38:11;;;;;;;12.13;8.02;;;;;;;22.32;54.27;98578.69;4851865;29;20063;-81
2021/07/20 00:40:43;;;;;;;12.05;7.78;;;;;;;22.28;53.98;98577.44;4882502;29;20055;-81
2021/07/20 00:43:09;;;;;;;11.80;7.40;;;;;;;22.27;53.79;98576.63;4881978;29;20423;-80
2021/07/20 00:45:35;;;;;;;13.70;7.50;;;;;;;22.31;53.85;98577.03;4882094;29;20045;-80
2021/07/20 00:48:02;;;;;;;15.05;8.48;;;;;;;22.23;53.96;98572.66;4880361;29;20135;-80
2021/07/20 00:50:32;;;;;;;8.82;7.70;;;;;;;22.19;54.51;98573.28;4880755;29;20048;-81
2021/07/20 00:52:58;;;;;;;16.10;7.97;;;;;;;22.15;54.73;98585.66;4882085;29;20056;-79
2021/07/20 00:55:24;;;;;;;15.95;8.70;;;;;;;22.01;55.31;98577.53;4881403;29;20048;-80
2021/07/20 00:57:54;;;;;;;14.18;8.52;;;;;;;21.94;55.46;98582.16;4867292;29;20083;-80
2021/07/20 01:00:22;;;;;;;16.17;9.13;;;;;;;21.91;55.50;98581.75;4882400;29;20415;-79
2021/07/20 01:02:50;;;;;;;16.73;10.05;;;;;;;21.93;55.69;98590.56;4882491;29;20041;-78
2021/07/20 01:05:19;;;;;;;21.85;9.50;;;;;;;21.75;55.68;98566.75;4882343;29;20073;-80
2021/07/20 01:07:46;;;;;;;13.48;9.13;;;;;;;21.96;55.45;98592.81;4882417;29;20048;-79
2021/07/20 01:10:13;;;;;;;15.90;9.15;;;;;;;22.02;55.29;98606.41;4866479;29;20063;-80
2021/07/20 01:12:40;;;;;;;14.73;8.63;;;;;;;22.00;55.36;98594.06;4851040;29;20077;-78
2021/07/20 01:15:07;;;;;;;18.77;9.30;;;;;;;22.07;55.22;98612.03;4850902;29;20044;-77
2021/07/20 01:17:34;;;;;;;12.27;8.30;;;;;;;22.12;55.13;98605.97;4866187;29;20465;-77
2021/07/20 01:20:00;;;;;;;14.13;8.00;;;;;;;22.18;55.12;98609.72;4881462;29;20048;-77
2021/07/20 01:22:33;;;;;;;15.68;8.43;;;;;;;22.19;54.96;98605.94;4865991;29;20052;-78
2021/07/20 01:25:09;;;;;;;17.17;8.52;;;;;;;22.15;54.76;98589.22;4866354;29;20158;-81
2021/07/20 01:27:37;;;;;;;11.93;7.15;;;;;;;22.22;54.37;98598.19;4853734;29;20053;-78
2021/07/20 01:30:05;;;;;;;14.10;7.53;;;;;;;22.24;54.37;98603.44;4881422;29;20062;-79
2021/07/20 01:32:33;;;;;;;26.95;7.90;;;;;;;22.26;54.10;98604.88;4896478;29;20053;-81
2021/07/20 01:34:59;;;;;;;18.40;7.05;;;;;;;22.29;53.93;98592.72;4881705;29;20135;-80
2021/07/20 01:37:25;;;;;;;13.63;6.65;;;;;;;22.33;54.13;98585.78;4897912;29;20139;-87
2021/07/20 01:39:51;;;;;;;12.30;7.00;;;;;;;22.43;53.85;98593.50;4884058;29;20127;-84
2021/07/20 01:42:17;;;;;;;12.55;6.97;;;;;;;22.51;53.53;98594.09;4893357;29;20067;-82
2021/07/20 01:44:43;;;;;;;12.90;7.13;;;;;;;22.45;53.46;98583.22;4909231;29;20092;-89
2021/07/20 01:47:10;;;;;;;18.15;8.07;;;;;;;22.58;53.69;98588.59;4884524;29;20076;-87
2021/07/20 01:49:38;;;;;;;19.48;7.65;;;;;;;22.62;53.41;98584.38;4894578;29;20044;-83
2021/07/20 01:52:07;;;;;;;17.83;7.38;;;;;;;22.72;53.11;98584.75;4887693;29;20098;-82
2021/07/20 01:54:35;;;;;;;17.45;8.20;;;;;;;22.79;53.10;98588.28;4913231;29;20075;-81
2021/07/20 01:57:03;;;;;;;12.07;6.90;;;;;;;22.82;52.74;98589.69;4866371;29;20052;-88
2021/07/20 01:59:49;;;;;;;14.80;7.45;;;;;;;22.93;52.58;98589.03;4884079;29;20132;-84
2021/07/20 02:02:50;;;;;;;17.30;9.20;;;;;;;22.97;52.42;98584.78;4898405;29;20048;-85
2021/07/20 02:10:49;;;;;;;23.80;8.32;;;;;;;23.20;52.12;98591.53;4887684;29;20089;-85
2021/07/20 02:13:27;;;;;;;12.30;8.50;;;;;;;23.19;52.31;98576.25;4869018;29;20049;-79
2021/07/20 02:16:03;;;;;;;19.83;8.95;;;;;;;23.27;52.29;98584.97;4883476;29;20385;-88
2021/07/20 02:18:45;;;;;;;14.63;8.07;;;;;;;23.35;52.07;98594.75;4896037;29;20049;-85
2021/07/20 02:21:21;;;;;;;13.80;7.53;;;;;;;23.37;52.11;98584.47;4897702;29;20424;-78
2021/07/20 02:23:50;;;;;;;15.35;8.13;;;;;;;23.44;51.84;98587.97;4881157;29;20048;-85
2021/07/20 02:26:16;;;;;;;17.08;7.55;;;;;;;23.48;51.79;98591.09;4865397;29;20064;-83
2021/07/20 02:28:42;;;;;;;17.65;8.02;;;;;;;23.51;51.80;98591.50;4896543;29;20568;-80
2021/07/20 02:31:10;;;;;;;17.45;8.20;;;;;;;23.60;51.42;98585.72;4881053;29;20460;-80
2021/07/20 02:33:37;;;;;;;17.98;8.32;;;;;;;23.68;51.33;98583.56;4881013;29;20055;-83
2021/07/20 02:36:06;;;;;;;13.95;7.57;;;;;;;23.75;50.84;98588.97;4881541;29;20049;-85
2021/07/20 02:38:45;;;;;;;17.33;8.10;;;;;;;23.76;50.55;98579.72;4882848;29;20055;-80
2021/07/20 02:41:17;;;;;;;15.90;7.85;;;;;;;23.85;50.30;98581.09;4912154;29;20072;-84
2021/07/20 02:43:47;;;;;;;14.15;8.60;;;;;;;23.98;50.06;98589.13;4896980;29;20047;-77
2021/07/20 02:46:16;;;;;;;14.68;8.02;;;;;;;24.04;49.89;98592.84;4884568;29;20044;-78
2021/07/20 02:48:43;;;;;;;12.70;8.05;;;;;;;24.12;49.58;98588.97;4869561;29;20044;-76
2021/07/20 02:51:14;;;;;;;11.63;7.97;;;;;;;24.20;49.35;98581.28;4899644;29;20503;-78
2021/07/20 02:53:43;;;;;;;13.77;7.75;;;;;;;24.28;49.04;98585.59;4914168;29;20473;-77
2021/07/20 02:56:12;;;;;;;15.40;7.95;;;;;;;24.30;48.18;98590.84;4867280;29;20048;-78
2021/07/20 02:58:44;;;;;;;11.95;7.28;;;;;;;24.34;48.40;98586.59;4883768;29;20157;-76
2021/07/20 03:01:16;;;;;;;21.88;8.02;;;;;;;24.38;48.11;98587.81;4868732;29;20059;-76
2021/07/20 03:03:42;;;;;;;10.93;7.95;;;;;;;24.42;48.20;98581.69;4868495;29;20108;-76
2021/07/20 03:06:11;;;;;;;13.45;7.97;;;;;;;24.55;47.90;98582.56;4868999;29;20056;-77
2021/07/20 03:08:38;;;;;;;12.50;7.73;;;;;;;24.65;47.88;98591.03;4898040;29;20065;-78
2021/07/20 03:11:14;;;;;;;26.85;8.60;;;;;;;24.71;47.86;98592.81;4883333;29;20281;-76
2021/07/20 03:13:48;;;;;;;15.10;7.70;;;;;;;24.79;47.87;98595.25;4868767;29;20460;-78
2021/07/20 03:16:15;;;;;;;12.07;7.68;;;;;;;24.87;47.57;98592.19;4883943;29;20500;-79
2021/07/20 03:18:43;;;;;;;12.23;7.63;;;;;;;24.89;47.35;98590.03;4884224;29;20529;-75
2021/07/20 03:21:09;;;;;;;12.30;8.30;;;;;;;24.96;47.31;98595.41;4883674;29;20049;-75
2021/07/20 03:23:36;;;;;;;18.50;7.95;;;;;;;25.01;47.40;98591.97;4868402;29;20044;-78
2021/07/20 03:26:03;;;;;;;15.50;8.07;;;;;;;25.06;47.46;98595.66;4856591;29;20053;-78
2021/07/20 03:28:29;;;;;;;17.40;7.75;;;;;;;25.01;47.47;98591.97;4880256;29;20168;-75
2021/07/20 03:30:57;;;;;;;19.10;9.00;;;;;;;25.06;47.18;98589.38;4864983;29;20048;-78
2021/07/20 03:33:24;;;;;;;18.67;10.25;;;;;;;25.09;47.43;98595.22;4879925;29;20140;-76
2021/07/20 03:36:08;;;;;;;18.85;10.65;;;;;;;24.99;47.81;98588.66;4856431;29;20144;-78
2021/07/20 03:38:34;;;;;;;23.88;11.13;;;;;;;25.08;47.62;98603.63;4849102;29;20140;-75
2021/07/20 03:41:03;;;;;;;16.50;10.50;;;;;;;25.10;47.84;98602.38;4849880;29;20132;-74
2021/07/20 03:43:31;;;;;;;18.10;12.07;;;;;;;25.19;47.80;98594.66;4864700;29;20163;-75
2021/07/20 03:45:59;;;;;;;18.08;11.73;;;;;;;25.30;47.61;98602.03;4864358;29;20074;-76
2021/07/20 03:48:26;;;;;;;20.98;11.77;;;;;;;25.42;47.55;98600.13;4864822;29;20508;-75
2021/07/20 03:50:58;;;;;;;19.33;11.63;;;;;;;25.59;47.25;98604.91;4866369;29;20128;-73
2021/07/20 03:53:28;;;;;;;27.95;11.27;;;;;;;25.71;47.21;98603.00;4849264;29;20133;-75
2021/07/20 03:55:57;;;;;;;16.58;11.07;;;;;;;25.75;46.18;98593.25;4848904;29;20087;-77
2021/07/20 03:58:23;;;;;;;19.42;9.70;;;;;;;25.83;46.04;98609.34;4864322;29;20059;-75
2021/07/20 04:00:54;;;;;;;23.75;10.15;;;;;;;25.90;45.74;98606.47;4879754;29;20053;-76
2021/07/20 04:03:22;;;;;;;18.98;8.77;;;;;;;25.98;45.64;98603.34;4879836;29;20044;-75
2021/07/20 04:06:15;;;;;;;20.05;9.25;;;;;;;26.06;45.22;98599.41;4852421;29;20080;-75
2021/07/20 04:08:59;;;;;;;18.50;8.68;;;;;;;26.22;45.08;98600.59;4879773;29;20532;-74
2021/07/20 04:11:45;;;;;;;17.88;8.15;;;;;;;26.37;44.42;98596.25;4897300;29;20071;-75
2021/07/20 04:14:12;;;;;;;14.90;7.90;;;;;;;26.48;44.16;98593.72;4860135;29;20060;-72
2021/07/20 04:16:58;;;;;;;20.67;7.47;;;;;;;26.52;44.21;98581.22;4872300;29;20101;-76
2021/07/20 04:19:24;;;;;;;15.85;8.13;;;;;;;26.68;43.81;98588.66;4867219;29;20095;-75
2021/07/20 04:22:19;;;;;;;16.50;7.78;;;;;;;26.84;43.30;98595.25;4898829;29;20056;-74
2021/07/20 04:24:45;;;;;;;12.30;6.20;;;;;;;26.91;42.23;98595.09;4868381;29;20051;-75
2021/07/20 04:27:11;;;;;;;11.73;6.50;;;;;;;26.81;42.49;98590.25;4866662;29;20111;-75
2021/07/20 04:29:37;;;;;;;11.30;6.00;;;;;;;26.85;42.66;98592.28;4882208;29;20048;-75
2021/07/20 04:32:05;;;;;;;10.65;5.78;;;;;;;26.92;41.95;98588.53;4867022;29;20414;-75
2021/07/20 04:34:33;;;;;;;11.03;5.87;;;;;;;26.96;41.52;98600.66;4882325;29;20055;-75
2021/07/20 04:37:11;;;;;;;9.63;6.30;;;;;;;26.91;41.45;98598.66;4885795;29;20060;-76
2021/07/20 04:39:39;;;;;;;12.73;7.57;;;;;;;26.90;42.09;98590.69;4867394;29;20049;-78
2021/07/20 04:42:09;;;;;;;14.43;7.13;;;;;;;26.93;42.16;98582.81;4868221;29;20068;-77
2021/07/20 04:44:38;;;;;;;13.40;8.25;;;;;;;27.09;41.85;98590.22;4882854;29;20056;-85
2021/07/20 04:47:37;;;;;;;16.42;9.32;;;;;;;27.08;41.73;98584.97;4847924;29;20051;-77
2021/07/20 04:50:17;;;;;;;18.02;8.75;;;;;;;27.19;41.88;98595.06;4883977;29;20070;-76
2021/07/20 04:52:45;;;;;;;12.98;8.75;;;;;;;27.35;41.48;98588.75;4897218;29;20090;-76
2021/07/20 04:55:13;;;;;;;22.75;9.27;;;;;;;27.61;41.45;98578.19;4850650;29;20112;-75
2021/07/20 04:57:39;;;;;;;16.47;8.67;;;;;;;27.80;40.77;98579.59;4896969;29;20056;-77
2021/07/20 05:00:07;;;;;;;22.17;9.13;;;;;;;27.98;40.85;98578.47;4881691;29;20045;-76
2021/07/20 05:02:38;;;;;;;19.35;10.35;;;;;;;28.20;40.60;98585.88;4866068;29;20049;-78
2021/07/20 05:05:06;;;;;;;17.25;10.07;;;;;;;28.27;40.56;98587.31;4881846;29;20397;-77
2021/07/20 05:07:32;;;;;;;19.80;10.35;;;;;;;28.33;40.24;98578.06;4880902;29;20072;-75
2021/07/20 05:09:59;;;;;;;18.92;10.13;;;;;;;28.38;40.18;98582.00;4851185;29;20502;-77
2021/07/20 05:12:31;;;;;;;23.80;14.18;;;;;;;28.37;39.82;98574.81;4882329;29;20049;-76
2021/07/20 05:15:03;;;;;;;16.50;10.10;;;;;;;28.55;39.13;98588.25;4852653;29;20052;-75
2021/07/20 05:17:31;;;;;;;15.95;9.32;;;;;;;28.61;39.36;98576.19;4864931;29;20040;-76
2021/07/20 05:19:57;;;;;;;17.88;9.02;;;;;;;28.74;38.78;98588.72;4880371;29;20050;-77
2021/07/20 05:22:44;;;;;;;11.63;7.65;;;;;;;28.71;38.96;98583.75;4857098;29;20053;-76
2021/07/20 05:25:12;;;;;;;15.18;7.45;;;;;;;28.89;38.91;98594.38;4865917;29;20147;-76
2021/07/20 05:27:49;;;;;;;15.13;7.63;;;;;;;29.07;38.68;98578.59;4863047;29;20137;-75
2021/07/20 05:30:16;;;;;;;17.38;7.93;;;;;;;29.20;38.77;98576.25;4862187;29;20424;-76
2021/07/20 05:32:44;;;;;;;11.85;7.50;;;;;;;29.29;38.83;98576.59;4877433;29;20045;-77
2021/07/20 05:35:16;;;;;;;14.18;7.70;;;;;;;29.52;38.67;98587.22;4878679;29;20529;-76
2021/07/20 05:37:44;;;;;;;15.43;6.80;;;;;;;29.60;37.87;98588.72;4877718;29;20144;-78
2021/07/20 05:40:16;;;;;;;18.23;6.53;;;;;;;29.70;38.08;98583.25;4877489;29;20052;-81
2021/07/20 05:42:43;;;;;;;12.90;6.72;;;;;;;29.76;37.80;98562.91;4880774;29;20051;-76
2021/07/20 05:45:20;;;;;;;18.05;9.05;;;;;;;30.03;38.06;98588.69;4897833;29;20052;-78
2021/07/20 05:47:52;;;;;;;14.02;6.85;;;;;;;30.14;37.15;98584.88;4865562;29;20048;-76
2021/07/20 05:50:20;;;;;;;13.93;7.00;;;;;;;30.15;37.47;98578.25;4895079;29;20052;-76
2021/07/20 05:53:04;;;;;;;10.98;6.43;;;;;;;30.30;37.65;98585.78;4870603;29;20090;-81
2021/07/20 05:55:35;;;;;;;13.95;6.22;;;;;;;30.43;37.16;98574.28;4881434;29;20060;-80
2021/07/20 05:58:01;;;;;;;12.88;5.28;;;;;;;30.51;36.04;98570.16;4880901;29;20060;-78
2021/07/20 06:00:29;;;;;;;8.85;5.60;;;;;;;30.41;36.20;98560.75;4864729;29;20076;-82
2021/07/20 06:03:15;;;;;;;16.17;8.90;;;;;;;30.47;36.01;98558.84;4869174;29;20412;-84
2021/07/20 06:05:52;;;;;;;14.23;5.90;;;;;;;30.70;35.14;98560.28;4896998;29;20091;-87
2021/07/20 06:08:21;;;;;;;17.10;7.90;;;;;;;30.92;35.03;98560.88;4896852;29;20143;-93
2021/07/20 06:10:50;;;;;;;6.10;4.80;;;;;;;31.03;34.92;98558.97;4897646;29;20053;-82
2021/07/20 06:13:16;;;;;;;10.40;4.90;;;;;;;31.10;34.68;98556.72;4889162;29;20197;-77
2021/07/20 06:15:46;;;;;;;11.68;5.00;;;;;;;31.18;34.85;98547.06;4875288;29;20056;-76
2021/07/20 06:18:16;;;;;;;9.70;4.53;;;;;;;31.43;34.14;98549.03;4859382;29;20053;-76
2021/07/20 06:20:58;;;;;;;5.95;4.78;;;;;;;31.60;33.66;98544.03;4878586;29;20045;-77
2021/07/20 06:23:44;;;;;;;11.02;4.82;;;;;;;31.81;33.16;98527.38;4894203;29;20140;-83
2021/07/20 06:26:12;;;;;;;10.25;5.15;;;;;;;31.99;32.97;98546.16;4863061;29;20048;-76
2021/07/20 06:28:40;;;;;;;12.68;5.78;;;;;;;32.22;32.77;98550.22;4847753;29;20072;-77
2021/07/20 06:31:07;;;;;;;14.73;4.93;;;;;;;32.32;31.43;98550.16;4877905;29;20057;-77
2021/07/20 06:33:33;;;;;;;7.63;4.18;;;;;;;32.18;30.71;98543.59;4847204;29;20052;-76
2021/07/20 06:36:03;;;;;;;12.70;4.95;;;;;;;32.05;31.27;98544.22;4862827;29;20045;-76
2021/07/20 06:38:32;;;;;;;7.38;4.60;;;;;;;32.32;31.65;98539.09;4893371;29;20556;-77
2021/07/20 06:40:58;;;;;;;7.28;4.65;;;;;;;32.52;31.53;98548.44;4878295;29;20155;-76
2021/07/20 06:43:25;;;;;;;8.33;3.97;;;;;;;32.60;30.18;98532.03;4878776;29;20065;-75
2021/07/20 06:45:54;;;;;;;6.50;4.20;;;;;;;32.67;30.10;98539.22;4878374;29;20132;-77
2021/07/20 06:48:22;;;;;;;8.07;4.20;;;;;;;32.72;29.77;98541.94;4862347;29;20057;-76
2021/07/20 06:50:51;;;;;;;14.52;4.07;;;;;;;32.84;28.92;98539.66;4878245;29;20140;-76
2021/07/20 06:53:18;;;;;;;4.20;3.67;;;;;;;32.77;28.70;98545.50;4878102;29;20052;-75
2021/07/20 06:55:51;;;;;;;8.32;4.10;;;;;;;32.95;29.01;98540.41;4877524;29;20056;-76
2021/07/20 06:58:21;;;;;;;12.55;4.53;;;;;;;33.20;28.62;98542.16;4893098;29;20053;-81
2021/07/20 07:01:12;;;;;;;14.40;4.00;;;;;;;33.41;28.32;98535.31;4876964;29;20565;-76
2021/07/20 07:03:57;;;;;;;9.77;4.25;;;;;;;33.53;28.19;98530.22;4877345;29;20140;-77
2021/07/20 07:06:27;;;;;;;7.88;3.40;;;;;;;33.69;27.26;98528.13;4878631;29;20053;-77
2021/07/20 07:08:54;;;;;;;6.25;3.70;;;;;;;33.47;26.99;98522.25;4893057;29;20083;-76
2021/07/20 07:11:23;;;;;;;10.63;3.88;;;;;;;33.52;27.77;98519.47;4862688;29;20057;-76
2021/07/20 07:13:50;;;;;;;8.18;3.90;;;;;;;33.84;27.83;98535.44;4861692;29;20064;-77
2021/07/20 07:16:20;;;;;;;8.75;4.47;;;;;;;33.99;27.47;98538.06;4877643;29;20048;-77
2021/07/20 07:18:48;;;;;;;18.27;4.18;;;;;;;34.14;27.19;98530.69;4877813;29;20060;-76
2021/07/20 07:21:21;;;;;;;9.68;4.10;;;;;;;34.26;27.13;98525.53;4877634;29;20049;-76
2021/07/20 07:23:51;;;;;;;11.52;4.80;;;;;;;34.10;27.82;98512.97;4877946;29;20100;-79
2021/07/20 07:26:20;;;;;;;8.77;4.10;;;;;;;34.38;27.35;98511.19;4861957;29;20092;-78
2021/07/20 07:28:49;;;;;;;9.88;4.57;;;;;;;34.55;26.66;98529.03;4861897;29;20061;-77
2021/07/20 07:31:16;;;;;;;5.53;3.88;;;;;;;34.44;25.49;98512.78;4876278;29;20044;-78
2021/07/20 07:33:42;;;;;;;6.40;4.10;;;;;;;34.33;25.40;98509.34;4893219;29;20049;-79
2021/07/20 07:36:13;;;;;;;14.25;3.70;;;;;;;34.40;25.43;98515.34;4832252;29;20053;-78
2021/07/20 07:39:06;;;;;;;;;;;;;;;34.58;25.01;98516.50;4877726;29;20080;-81
2021/07/20 07:41:39;;;;;;;5.80;4.05;;;;;;;34.50;25.62;98517.19;4861446;29;19927;-76
2021/07/20 07:44:20;;;;;;;7.45;4.57;;;;;;;34.49;24.93;98519.13;4876827;29;20067;-76
2021/07/20 07:46:48;;;;;;;4.82;3.90;;;;;;;34.45;25.15;98518.03;4893089;29;20131;-78
2021/07/20 07:49:16;;;;;;;7.63;3.95;;;;;;;34.42;25.13;98513.09;4845781;29;20048;-77
2021/07/20 07:51:46;;;;;;;5.80;3.50;;;;;;;34.54;24.74;98510.72;4877103;29;20076;-77
2021/07/20 07:54:15;;;;;;;4.80;3.95;;;;;;;34.82;24.59;98499.75;4876705;29;20053;-77
2021/07/20 07:56:46;;;;;;;5.03;3.58;;;;;;;35.15;24.52;98508.13;4892303;29;20057;-78
2021/07/20 07:59:16;;;;;;;9.05;3.60;;;;;;;35.22;24.11;98508.56;4876259;29;20116;-81
2021/07/20 08:06:44;;;;;;;;;;;;;;;;;;;;;
2021/07/20 08:10:51;;;;;;;4.75;4.07;;;;;;;35.40;23.86;98471.56;4838281;29;20049;-78
2021/07/20 08:13:49;;;;;;;8.70;4.05;;;;;;;35.49;23.96;98478.06;4848570;29;20062;-78
2021/07/20 08:16:31;;;;;;;8.15;4.28;;;;;;;35.80;24.35;98484.97;4828787;29;20117;-77
2021/07/20 08:18:57;;;;;;;7.25;4.45;;;;;;;36.12;24.25;98492.41;4876721;29;20417;-75
2021/07/20 08:21:28;;;;;;;6.53;3.80;;;;;;;36.12;24.26;98486.84;4861166;29;20045;-75
2021/07/20 08:23:56;;;;;;;8.10;4.35;;;;;;;36.33;23.90;98474.09;4876633;29;20101;-75
2021/07/20 08:26:28;;;;;;;8.95;4.80;;;;;;;36.22;23.64;98478.25;4876045;29;20523;-75
2021/07/20 08:29:10;;;;;;;8.55;4.43;;;;;;;36.47;23.85;98480.50;4860381;29;20064;-76
2021/07/20 08:31:39;;;;;;;11.13;4.90;;;;;;;36.69;23.69;98479.69;4860475;29;20104;-75
2021/07/20 08:34:06;;;;;;;10.82;5.10;;;;;;;36.61;23.47;98476.84;4876140;29;20056;-79
2021/07/20 08:36:37;;;;;;;6.30;4.70;;;;;;;36.72;23.44;98472.69;4860723;29;20447;-78
2021/07/20 08:39:03;;;;;;;9.05;5.35;;;;;;;36.88;23.71;98475.91;4861671;29;20053;-79
2021/07/20 08:42:01;;;;;;;6.55;4.97;;;;;;;36.79;22.87;98472.25;4860705;29;20057;-79
2021/07/20 08:44:36;;;;;;;;;;;;;;;36.88;23.18;98470.34;4891722;29;20056;-78
2021/07/20 08:47:28;;;;;;;10.32;4.80;;;;;;;36.65;23.35;98461.16;4860735;29;19971;-83
2021/07/20 08:50:35;;;;;;;7.18;4.93;;;;;;;36.72;23.59;98456.78;4860393;29;20095;-77
2021/07/20 08:53:51;;;;;;;9.63;5.25;;;;;;;36.91;23.39;98461.34;4862803;29;20056;-78
2021/07/20 08:56:18;;;;;;;6.82;4.82;;;;;;;37.07;23.11;98451.47;4859026;29;20516;-76
2021/07/20 08:58:51;;;;;;;12.63;5.07;;;;;;;37.34;22.68;98452.44;4857450;29;20109;-77
2021/07/20 09:01:26;;;;;;;9.93;5.10;;;;;;;37.45;22.52;98439.06;4860553;29;20108;-77
2021/07/20 09:04:00;;;;;;;10.65;5.15;;;;;;;37.27;22.50;98438.97;4879187;29;20079;-77
2021/07/20 09:06:48;;;;;;;12.25;6.85;;;;;;;37.07;22.71;98425.59;4858769;29;20147;-76
2021/07/20 09:09:24;;;;;;;;;;;;;;;37.08;22.74;98430.00;4886949;29;20059;-77
2021/07/20 09:11:57;;;;;;;8.05;5.40;;;;;;;37.34;22.94;98425.38;4894096;29;19926;-78
2021/07/20 09:14:49;;;;;;;14.40;4.85;;;;;;;37.73;22.73;98434.94;4852776;29;20135;-80
2021/07/20 09:17:34;;;;;;;7.30;4.30;;;;;;;37.96;21.71;98432.88;4857098;29;20059;-78
2021/07/20 09:20:09;;;;;;;7.43;3.95;;;;;;;37.92;21.20;98437.47;4895463;29;20100;-78
2021/07/20 09:22:40;;;;;;;5.63;4.10;;;;;;;38.10;21.94;98427.97;4863654;29;20052;-75
2021/07/20 09:25:18;;;;;;;6.07;4.50;;;;;;;38.02;21.50;98437.13;4863858;29;20057;-77
2021/07/20 09:27:53;;;;;;;9.52;4.50;;;;;;;37.34;22.41;98438.50;4893052;29;20093;-77
2021/07/20 09:30:46;;;;;;;5.63;4.45;;;;;;;37.69;22.35;98428.34;4881717;29;20063;-79
2021/07/20 09:33:25;;;;;;;4.88;4.40;;;;;;;37.98;22.09;98418.59;4878838;29;20049;-78
2021/07/20 09:36:18;;;;;;;13.52;4.50;;;;;;;38.29;21.62;98413.72;4878400;29;20100;-78
2021/07/20 09:39:35;;;;;;;8.50;4.63;;;;;;;38.20;21.81;98412.88;4893859;29;20044;-76
2021/07/20 09:42:33;;;;;;;8.15;4.30;;;;;;;38.65;21.11;98403.38;4897230;29;20064;-79
2021/07/20 09:45:21;;;;;;;5.63;3.72;;;;;;;38.95;20.48;98407.13;4878213;29;20056;-77
2021/07/20 09:48:36;;;;;;;4.60;3.15;;;;;;;39.14;19.80;98398.34;4893752;29;20040;-77
2021/07/20 09:51:24;;;;;;;8.63;3.70;;;;;;;38.93;20.36;98409.41;4862395;29;20140;-78
2021/07/20 09:54:33;;;;;;;10.07;3.60;;;;;;;39.32;19.95;98400.78;4867039;29;20055;-80
2021/07/20 09:57:30;;;;;;;5.65;3.92;;;;;;;39.79;19.97;98395.09;4877743;29;20053;-79
2021/07/20 10:00:07;;;;;;;5.25;4.00;;;;;;;40.32;19.63;98391.97;4880749;29;20055;-77
2021/07/20 10:02:47;;;;;;;5.67;3.73;;;;;;;40.33;19.39;98388.03;4878346;29;20100;-78
2021/07/20 10:05:23;;;;;;;7.68;4.20;;;;;;;40.13;19.61;98373.66;4893611;29;20331;-77
2021/07/20 10:08:01;;;;;;;7.47;3.83;;;;;;;40.64;19.89;98377.19;4894569;29;20108;-78
2021/07/20 10:10:37;;;;;;;5.55;4.00;;;;;;;41.12;19.51;98374.91;4877888;29;20044;-80
2021/07/20 10:13:23;;;;;;;;;;;;;;;41.53;18.78;98373.91;4892993;29;20134;-79
2021/07/20 10:16:41;;;;;;;10.82;3.70;;;;;;;41.70;18.23;98356.78;4893376;29;19923;-79
2021/07/20 10:24:21;;;;;;;6.55;3.80;;;;;;;42.02;17.49;98354.22;4799217;29;20059;-78
2021/07/20 10:28:25;;;;;;;5.07;3.78;;;;;;;41.76;17.46;98329.31;4792604;29;20066;-79
2021/07/20 10:32:07;;;;;;;4.35;3.33;;;;;;;41.85;17.57;98340.44;4752816;30;20056;-78
2021/07/20 10:35:35;;;;;;;5.83;3.40;;;;;;;42.16;17.66;98322.91;4750429;30;20059;-80
2021/07/20 10:43:25;;;;;;;5.70;3.95;;;;;;;42.62;16.78;98317.81;4834947;29;20054;-78
2021/07/20 11:03:29;;;;;;;;;;;;;;;;;;;;;
2021/07/20 11:10:36;;;;;;;5.15;4.05;;;;;;;43.33;16.27;98296.38;4720627;30;20125;-82
2021/07/20 11:13:16;;;;;;;7.90;3.72;;;;;;;43.67;15.78;98293.94;4859697;29;20134;-77
2021/07/20 11:15:43;;;;;;;10.02;3.47;;;;;;;44.05;15.96;98287.59;4826710;29;20052;-78
2021/07/20 11:18:13;;;;;;;4.20;3.30;;;;;;;44.32;15.53;98282.94;4849213;29;20060;-82
2021/07/20 11:20:40;;;;;;;6.07;3.30;;;;;;;44.76;15.20;98294.66;4880448;29;20052;-78
2021/07/20 11:23:06;;;;;;;;;;;;;;;45.34;15.04;98285.16;4898804;29;20050;-82
2021/07/20 11:25:33;;;;;;;7.68;3.10;;;;;;;45.73;14.70;98274.44;4867243;29;20021;-80
2021/07/20 11:27:59;;;;;;;7.30;3.47;;;;;;;46.14;14.50;98274.56;4897597;29;20147;-80
2021/07/20 11:30:31;;;;;;;8.77;3.55;;;;;;;46.32;13.58;98255.03;4898052;29;20104;-79
2021/07/20 11:33:06;;;;;;;7.32;3.50;;;;;;;46.46;14.20;98260.84;4913248;29;20501;-78
2021/07/20 11:35:35;;;;;;;4.55;3.30;;;;;;;46.31;14.05;98267.53;4897516;29;20408;-77
2021/07/20 11:38:14;;;;;;;5.57;3.03;;;;;;;46.86;13.56;98255.56;4882386;29;20056;-82
2021/07/20 11:41:06;;;;;;;9.00;3.30;;;;;;;46.95;13.33;98259.72;4896792;29;20048;-79
2021/07/20 11:44:26;;;;;;;13.18;3.17;;;;;;;47.26;13.28;98246.22;4912913;29;20044;-77
2021/07/20 11:47:02;;;;;;;6.78;3.42;;;;;;;47.67;13.28;98254.56;4855961;29;20135;-82
2021/07/20 11:49:31;;;;;;;7.22;3.42;;;;;;;47.40;12.83;98256.84;4885382;29;20052;-79
2021/07/20 11:52:03;;;;;;;6.57;3.53;;;;;;;47.07;13.41;98252.13;4866811;29;20049;-84
2021/07/20 11:54:48;;;;;;;8.13;3.38;;;;;;;46.65;13.67;98256.22;4882192;29;20052;-80
2021/07/20 11:57:43;;;;;;;7.88;3.40;;;;;;;47.07;13.37;98249.31;4881632;29;20176;-78
2021/07/20 12:00:21;;;;;;;16.85;3.92;;;;;;;47.05;12.73;98240.38;4884616;29;20556;-81
2021/07/20 12:03:13;;;;;;;12.05;3.70;;;;;;;47.06;13.48;98253.34;4901003;29;20056;-83
2021/07/20 12:05:45;;;;;;;12.20;4.07;;;;;;;47.21;13.08;98246.59;4892667;29;20828;-78
2021/07/20 12:08:24;;;;;;;8.80;3.85;;;;;;;47.27;12.73;98247.81;4897589;29;20044;-78
2021/07/20 12:10:53;;;;;;;6.97;3.72;;;;;;;47.45;12.92;98239.47;4877648;29;20048;-78
2021/07/20 12:13:19;;;;;;;9.52;3.60;;;;;;;47.18;13.04;98233.22;4900831;29;20056;-84
2021/07/20 12:15:46;;;;;;;6.78;3.72;;;;;;;46.97;13.39;98220.53;4869542;29;20059;-80
2021/07/20 12:18:12;;;;;;;10.80;3.92;;;;;;;47.54;13.05;98233.44;4884553;29;20217;-77
2021/07/20 12:20:40;;;;;;;7.45;3.55;;;;;;;47.58;13.01;98218.09;4885173;29;20056;-78
2021/07/20 12:23:06;;;;;;;13.43;4.50;;;;;;;46.95;13.35;98217.31;4885071;29;20486;-81
2021/07/20 12:25:32;;;;;;;16.23;4.05;;;;;;;47.66;13.14;98213.31;4884223;29;20072;-78
2021/07/20 12:27:59;;;;;;;21.85;4.15;;;;;;;48.35;12.79;98221.66;4905593;29;20604;-77
2021/07/20 12:30:26;;;;;;;5.18;3.00;;;;;;;48.31;12.60;98215.19;4866010;29;20040;-78
2021/07/20 12:32:52;;;;;;;7.15;3.25;;;;;;;48.24;12.67;98209.50;4881514;29;20048;-77
2021/07/20 12:35:22;;;;;;;7.80;3.55;;;;;;;46.68;13.57;98210.16;4896917;29;20056;-79
2021/07/20 12:38:05;;;;;;;10.77;3.45;;;;;;;45.03;14.48;98208.09;4866401;29;20052;-83
2021/07/20 12:40:32;;;;;;;11.05;3.65;;;;;;;45.09;14.95;98196.50;4877761;29;20052;-82
2021/07/20 12:43:09;;;;;;;8.02;3.72;;;;;;;46.40;14.20;98203.03;4897140;29;20389;-79
2021/07/20 12:45:40;;;;;;;11.02;4.15;;;;;;;47.30;13.20;98204.59;4881125;29;20471;-84
2021/07/20 12:48:06;;;;;;;9.60;3.90;;;;;;;47.86;13.02;98194.00;4881479;29;20063;-79